LHBC 261045Z 03010KT CAVOK 14/M02 Q1039        

LHBP 261130Z 28005KT CAVOK 15/M00 Q1038 NOSIG        

LHDC 261115Z 35006KT CAVOK 14/M02 Q1038 NOSIG        

LHKE 261115Z 07006KT 320V100 CAVOK 14/M02 Q1038 NOSIG RMK BLU        

LHPA 261115Z 18010KT 140V240 CAVOK 14/01 Q1039 NOSIG RMK BLU        

LHPP 261115Z 10006KT 9999 SCT046 13/01 Q1040        

LHPR 261115Z 18006KT 110V240 9999 FEW040 15/02 Q1038 RMK BLU        

LHSM 261115Z 19005KT 9999 FEW040 13/04 Q1039 NOSIG        

LHSN 261115Z 13004KT CAVOK 15/M02 Q1038 NOSIG RMK BLU        

LHUD 261115Z 36011KT CAVOK 15/M01 Q1039